KCM weather

Kahramanmaraş Airport
Kahramanmaraş, Kahramanmaraş Province, Turkey

Public forecast

Using degrees Celsius for public forecast. Weather courtesy of forecast.io.

METAR (pilot weather report)

Retrieved 2019/06/18 07:50 UTC (42 minutes ago):

LTCN 180750Z 28016KT 250V310 9999 SCT040 SCT100 28/16 Q1009 NOSIG

TAF (pilot weather forecast)

Closest forecast is Gaziantep International Airport, 43.5 nm (80.6 km) SE. Retrieved 2019/06/18 06:03 UTC (2 hours ago):

TAF LTAJ 180440Z 1806/1906 23015KT 9999 SCT040 PROB30 TEMPO 1809/1812 -TSRA FEW025CB BKN035 BECMG 1815/1817 29007KT CAVOK TEMPO 1818/1822 27017KT TEMPO 1822/1902 27017KT